Terminal Aerodrome Forecast
Issued by NWS Jackson, MS

Current Version | Previous Version | Text Only | Print | Product List | Glossary On
Versions: 1 2 3 4 5 6 7 8 9 10 11 12 13 14 15 16 17 18 19 20 21 22 23 24
000
FTUS44 KJAN 221900 AAA
TAFHBG
TAF AMD
KHBG 221924Z 2219/2318 14007KT P6SM VCTS BKN011 OVC019CB
     FM230000 18009KT 4SM -RA BR OVC005
     FM230500 18006KT 1/4SM FG OVC001
     FM231500 15004KT 2SM TSRA BR SCT004 OVC010CB=

USA.gov is the U.S. government's official web portal to all federal, state and local government web resources and services.